Time;durP1;ratioP1;P1;durP2;ratioP2;P2;SDS_P1;SDS_P2;PMS_P1;PMS_P2;Temp;Humidity;BMP_temperature;BMP_pressure;BME280_temperature;BME280_humidity;BME280_pressure;Samples;Min_cycle;Max_cycle;Signal;HPM_P1;HPM_P2
2022/01/05 00:00:26;;;;;;;10.83;2.17;;;2.60;99.90;;;;;;6212397;23;20174;-61
2022/01/05 00:02:51;;;;;;;10.33;2.17;;;2.60;99.90;;;;;;6210185;23;20169;-62
2022/01/05 00:05:17;;;;;;;11.27;2.57;;;2.60;68.50;;;;;;6212293;23;20146;-60
2022/01/05 00:07:43;;;;;;;10.23;2.20;;;2.60;99.90;;;;;;6213459;23;20680;-62
2022/01/05 00:10:08;;;;;;;10.37;2.00;;;2.60;99.90;;;;;;6214473;23;20170;-61
2022/01/05 00:12:34;;;;;;;7.20;1.97;;;2.60;99.90;;;;;;6214572;23;20154;-62
2022/01/05 00:15:00;;;;;;;8.77;2.60;;;2.60;54.00;;;;;;6214479;23;20158;-62
2022/01/05 00:17:25;;;;;;;13.63;2.13;;;2.50;99.90;;;;;;6214366;23;20143;-62
2022/01/05 00:19:51;;;;;;;4.57;1.80;;;2.50;99.90;;;;;;6214424;23;20175;-62
2022/01/05 00:22:16;;;;;;;12.47;2.97;;;2.50;99.90;;;;;;6214137;23;20261;-61
2022/01/05 00:24:43;;;;;;;10.07;2.17;;;2.50;99.90;;;;;;6214306;23;20143;-62
2022/01/05 00:27:09;;;;;;;6.53;2.03;;;2.50;99.90;;;;;;6214304;23;20141;-62
2022/01/05 00:29:34;;;;;;;8.90;2.37;;;2.40;99.90;;;;;;6214037;23;20382;-61
2022/01/05 00:32:00;;;;;;;8.70;2.50;;;2.40;99.90;;;;;;6213920;23;20166;-62
2022/01/05 00:34:25;;;;;;;12.20;2.20;;;2.40;1.00;;;;;;6213806;23;20230;-62
2022/01/05 00:36:51;;;;;;;7.40;2.20;;;2.40;1.00;;;;;;6213978;23;20162;-62
2022/01/05 00:39:16;;;;;;;16.53;2.50;;;2.40;99.90;;;;;;6213920;23;20217;-60
2022/01/05 00:41:42;;;;;;;8.53;2.17;;;2.40;99.90;;;;;;6213790;23;20614;-61
2022/01/05 00:44:08;;;;;;;11.87;2.23;;;2.40;55.90;;;;;;6213823;23;20149;-60
2022/01/05 00:46:33;;;;;;;9.93;2.10;;;2.40;1.00;;;;;;6213823;23;20168;-62
2022/01/05 00:48:59;;;;;;;15.23;3.40;;;2.50;1.00;;;;;;6214163;23;20555;-61
2022/01/05 00:51:24;;;;;;;8.73;2.40;;;2.40;99.90;;;;;;6213410;23;20202;-62
2022/01/05 00:53:50;;;;;;;10.13;2.17;;;2.40;1.00;;;;;;6213547;23;20159;-62
2022/01/05 00:56:15;;;;;;;11.70;1.97;;;2.30;1.00;;;;;;6213615;23;20157;-62
2022/01/05 00:58:41;;;;;;;12.20;2.40;;;2.30;99.90;;;;;;6213814;23;20821;-62
2022/01/05 01:01:06;;;;;;;4.77;2.00;;;2.30;1.00;;;;;;6213914;23;20217;-62
2022/01/05 01:03:32;;;;;;;8.47;2.83;;;2.40;99.90;;;;;;6213941;23;20142;-61
2022/01/05 01:06:01;;;;;;;9.33;2.20;;;2.30;1.00;;;;;;6214026;23;20155;-62
2022/01/05 01:08:27;;;;;;;12.10;2.90;;;2.40;99.90;;;;;;6213867;23;20822;-62
2022/01/05 01:10:53;;;;;;;8.97;2.40;;;2.40;99.90;;;;;;6213258;23;20388;-62
2022/01/05 01:13:19;;;;;;;14.80;2.73;;;2.40;99.90;;;;;;6213767;23;20609;-62
2022/01/05 01:15:47;;;;;;;6.13;2.30;;;2.40;1.00;;;;;;6213602;23;20502;-62
2022/01/05 01:18:12;;;;;;;8.53;2.80;;;2.40;34.00;;;;;;6213810;23;20816;-62
2022/01/05 01:20:38;;;;;;;8.77;2.20;;;2.40;81.60;;;;;;6186860;23;20400;-62
2022/01/05 01:23:04;;;;;;;11.90;2.20;;;2.40;99.90;;;;;;6213185;23;20150;-62
2022/01/05 01:25:30;;;;;;;9.87;2.80;;;2.40;99.90;;;;;;6213499;23;20201;-62
2022/01/05 01:27:55;;;;;;;7.10;1.90;;;2.40;1.00;;;;;;6213217;23;20196;-62
2022/01/05 01:30:21;;;;;;;8.77;2.20;;;2.40;99.90;;;;;;6211117;23;20225;-61
2022/01/05 01:32:47;;;;;;;8.17;1.87;;;2.30;99.90;;;;;;6212073;23;20146;-61
2022/01/05 01:35:12;;;;;;;8.00;1.80;;;2.30;1.00;;;;;;6213558;23;20186;-61
2022/01/05 01:37:38;;;;;;;13.83;2.60;;;2.30;1.00;;;;;;6213284;23;20718;-61
2022/01/05 01:40:08;;;;;;;9.93;2.13;;;2.40;99.90;;;;;;6213648;23;20186;-61
2022/01/05 01:42:34;;;;;;;5.10;1.83;;;2.40;99.90;;;;;;6213328;23;20143;-62
2022/01/05 01:44:59;;;;;;;4.77;1.80;;;2.40;42.00;;;;;;6213767;23;20612;-62
2022/01/05 01:47:25;;;;;;;7.00;2.37;;;2.30;90.10;;;;;;6213245;23;20374;-61
2022/01/05 01:49:51;;;;;;;7.60;2.23;;;2.30;99.90;;;;;;6213255;23;20162;-62
2022/01/05 01:52:16;;;;;;;8.30;2.57;;;2.20;99.90;;;;;;6213347;23;20609;-61
2022/01/05 01:54:42;;;;;;;4.10;2.20;;;2.20;99.90;;;;;;6213592;23;20667;-62
2022/01/05 01:57:08;;;;;;;5.13;2.00;;;2.20;1.00;;;;;;6213771;23;20165;-62
2022/01/05 01:59:35;;;;;;;6.80;2.30;;;2.10;99.90;;;;;;6213224;23;20186;-61
2022/01/05 02:02:01;;;;;;;7.20;2.47;;;2.10;78.40;;;;;;6213610;23;20381;-61
2022/01/05 02:04:27;;;;;;;13.07;2.83;;;2.20;40.70;;;;;;6213296;23;20507;-61
2022/01/05 02:06:53;;;;;;;13.53;2.70;;;2.20;99.90;;;;;;6212800;23;20410;-62
2022/01/05 02:09:19;;;;;;;10.93;2.63;;;2.20;99.90;;;;;;6213297;23;20149;-61
2022/01/05 02:11:44;;;;;;;12.30;3.13;;;2.20;1.00;;;;;;6213361;23;20600;-61
2022/01/05 02:14:10;;;;;;;19.47;3.00;;;2.20;1.00;;;;;;6213176;23;20169;-61
2022/01/05 02:16:42;;;;;;;13.87;2.70;;;2.20;99.90;;;;;;6213022;23;20151;-61
2022/01/05 02:19:08;;;;;;;7.10;2.23;;;2.30;1.00;;;;;;6212930;23;20198;-62
2022/01/05 02:21:36;;;;;;;8.43;2.50;;;2.30;99.90;;;;;;6212799;23;20378;-61
2022/01/05 02:24:07;;;;;;;7.90;2.33;;;2.20;99.90;;;;;;6186209;23;20588;-61
2022/01/05 02:26:33;;;;;;;12.67;2.27;;;2.20;99.90;;;;;;6212633;23;21340;-62
2022/01/05 02:28:59;;;;;;;12.13;2.50;;;2.20;63.90;;;;;;6213091;23;20393;-61
2022/01/05 02:31:25;;;;;;;5.80;2.17;;;2.30;99.90;;;;;;6213191;23;20374;-62
2022/01/05 02:33:51;;;;;;;8.23;2.10;;;2.30;1.00;;;;;;6212955;23;20166;-61
2022/01/05 02:36:20;;;;;;;4.37;1.77;;;2.30;1.00;;;;;;6212884;23;20362;-61
2022/01/05 02:38:50;;;;;;;6.37;2.10;;;2.40;99.90;;;;;;6212677;23;20509;-61
2022/01/05 02:41:16;;;;;;;3.70;1.60;;;2.40;1.00;;;;;;6212771;23;20389;-61
2022/01/05 02:43:44;;;;;;;13.07;2.20;;;2.30;1.00;;;;;;6212768;23;20378;-60
2022/01/05 02:46:16;;;;;;;4.87;1.43;;;2.30;1.00;;;;;;6212700;23;20436;-61
2022/01/05 02:48:42;;;;;;;6.20;1.93;;;2.30;1.00;;;;;;6212731;23;20382;-61
2022/01/05 02:51:08;;;;;;;11.40;1.63;;;2.30;1.00;;;;;;6213002;23;20432;-61
2022/01/05 02:53:34;;;;;;;18.03;2.47;;;2.30;1.00;;;;;;6212648;23;20419;-61
2022/01/05 02:56:00;;;;;;;6.87;1.47;;;2.30;1.00;;;;;;6212773;23;20147;-61
2022/01/05 02:58:26;;;;;;;10.03;2.03;;;2.30;1.00;;;;;;6212518;23;20432;-61
2022/01/05 03:00:52;;;;;;;2.97;1.30;;;2.30;1.00;;;;;;6212629;23;20154;-62
2022/01/05 03:03:17;;;;;;;10.60;1.93;;;2.30;99.90;;;;;;6212888;23;20230;-61
2022/01/05 03:05:43;;;;;;;6.37;1.70;;;2.30;99.90;;;;;;6212979;23;20170;-61
2022/01/05 03:08:08;;;;;;;6.70;1.97;;;2.30;99.90;;;;;;6212540;23;20225;-61
2022/01/05 03:10:34;;;;;;;6.53;1.90;;;2.30;99.90;;;;;;6213063;23;20233;-61
2022/01/05 03:13:00;;;;;;;13.03;2.20;;;2.30;99.90;;;;;;6212553;23;20194;-60
2022/01/05 03:15:25;;;;;;;6.20;1.70;;;2.30;99.90;;;;;;6212515;23;20149;-61
2022/01/05 03:17:51;;;;;;;7.70;1.93;;;2.30;99.90;;;;;;6212386;23;20150;-61
2022/01/05 03:20:20;;;;;;;12.70;1.90;;;2.30;99.90;;;;;;6212496;23;20185;-61
2022/01/05 03:22:46;;;;;;;14.90;2.00;;;2.30;99.90;;;;;;6212721;23;20562;-60
2022/01/05 03:25:16;;;;;;;6.23;2.20;;;2.30;99.90;;;;;;6212430;23;20376;-60
2022/01/05 03:27:43;;;;;;;16.47;2.63;;;2.30;99.90;;;;;;6212630;23;20456;-62
2022/01/05 03:30:10;;;;;;;7.97;2.07;;;2.30;69.80;;;;;;6212590;23;20378;-60
2022/01/05 03:32:47;;;;;;;16.40;1.83;;;2.30;32.00;;;;;;6212634;23;20400;-61
2022/01/05 03:35:12;;;;;;;8.30;1.83;;;2.40;1.00;;;;;;6212668;23;20452;-61
2022/01/05 03:37:38;;;;;;;16.73;2.13;;;2.40;1.00;;;;;;6186530;23;20381;-61
2022/01/05 03:40:04;;;;;;;14.67;2.47;;;2.40;1.00;;;;;;6214506;23;20676;-61
2022/01/05 03:42:30;;;;;;;7.53;2.30;;;2.40;1.00;;;;;;6214736;23;20165;-61
2022/01/05 03:44:55;;;;;;;7.73;1.60;;;2.40;1.00;;;;;;6214817;23;20366;-61
2022/01/05 03:47:21;;;;;;;13.77;2.00;;;2.40;1.00;;;;;;6214116;23;20155;-61
2022/01/05 03:49:46;;;;;;;6.63;1.60;;;2.40;1.00;;;;;;6214424;23;20549;-61
2022/01/05 03:52:12;;;;;;;10.10;1.87;;;2.40;1.00;;;;;;6214328;23;20232;-61
2022/01/05 03:54:37;;;;;;;9.60;1.67;;;2.40;1.00;;;;;;6213985;23;20181;-61
2022/01/05 03:57:03;;;;;;;10.10;1.80;;;2.40;1.00;;;;;;6214454;23;20158;-61
2022/01/05 03:59:29;;;;;;;17.77;1.90;;;2.40;1.00;;;;;;6213900;23;20530;-61
2022/01/05 04:01:54;;;;;;;10.63;1.83;;;2.40;1.00;;;;;;6214329;23;20366;-61
2022/01/05 04:04:20;;;;;;;12.77;2.23;;;2.40;1.00;;;;;;6214090;23;20158;-61
2022/01/05 04:06:45;;;;;;;14.07;2.33;;;2.40;1.00;;;;;;6214365;23;20550;-61
2022/01/05 04:09:11;;;;;;;9.73;1.97;;;2.40;1.00;;;;;;6214335;23;20174;-61
2022/01/05 04:11:36;;;;;;;9.20;2.00;;;2.40;1.00;;;;;;6214410;23;20212;-60
2022/01/05 04:14:02;;;;;;;7.63;1.83;;;2.40;1.00;;;;;;6187558;23;20209;-61
2022/01/05 04:16:27;;;;;;;8.37;1.77;;;2.50;1.00;;;;;;6214538;23;20510;-61
2022/01/05 04:18:53;;;;;;;11.77;1.80;;;2.50;1.00;;;;;;6213980;23;20182;-61
2022/01/05 04:21:18;;;;;;;15.60;2.30;;;2.50;1.00;;;;;;6214637;23;20185;-59
2022/01/05 04:23:44;;;;;;;19.27;2.40;;;2.50;1.00;;;;;;6214056;23;20651;-61
2022/01/05 04:26:09;;;;;;;14.80;2.63;;;2.50;1.00;;;;;;6214422;23;20153;-61
2022/01/05 04:28:35;;;;;;;7.40;2.20;;;2.50;1.00;;;;;;6214174;23;20147;-59
2022/01/05 04:31:01;;;;;;;5.20;1.83;;;2.60;1.00;;;;;;6214061;23;20162;-62
2022/01/05 04:33:26;;;;;;;16.23;2.37;;;2.70;1.00;;;;;;6214121;23;20524;-62
2022/01/05 04:35:52;;;;;;;13.43;2.10;;;2.70;1.00;;;;;;6214458;23;20534;-62
2022/01/05 04:38:17;;;;;;;16.50;1.80;;;2.70;1.00;;;;;;6214032;23;20192;-62
2022/01/05 04:40:44;;;;;;;6.40;1.97;;;2.70;1.00;;;;;;6214463;23;20145;-62
2022/01/05 04:43:10;;;;;;;11.87;2.00;;;2.80;1.00;;;;;;6213873;23;20162;-61
2022/01/05 04:45:35;;;;;;;14.73;2.40;;;2.80;1.00;;;;;;6213930;23;20400;-61
2022/01/05 04:48:01;;;;;;;12.97;1.93;;;2.80;1.00;;;;;;6213820;23;20532;-60
2022/01/05 04:50:26;;;;;;;8.27;2.00;;;2.80;1.00;;;;;;6213537;23;20162;-62
2022/01/05 04:52:52;;;;;;;8.13;1.90;;;2.80;1.00;;;;;;6213907;23;20642;-61
2022/01/05 04:55:17;;;;;;;13.20;3.17;;;2.80;1.00;;;;;;6213956;23;20578;-61
2022/01/05 04:57:43;;;;;;;16.50;2.97;;;2.80;1.00;;;;;;6213792;23;20150;-61
2022/01/05 05:00:09;;;;;;;12.33;2.30;;;2.80;1.00;;;;;;6213949;23;20185;-61
2022/01/05 05:02:34;;;;;;;13.60;2.47;;;2.80;1.00;;;;;;6213988;23;20770;-61
2022/01/05 05:05:00;;;;;;;15.73;2.53;;;2.90;1.00;;;;;;6213729;23;20147;-62
2022/01/05 05:07:25;;;;;;;10.23;2.90;;;2.90;1.00;;;;;;6213942;23;20459;-62
2022/01/05 05:09:51;;;;;;;12.27;2.37;;;3.00;1.00;;;;;;6214056;23;20158;-62
2022/01/05 05:12:16;;;;;;;11.53;3.00;;;3.00;1.00;;;;;;6213541;23;20218;-61
2022/01/05 05:14:42;;;;;;;18.27;2.47;;;3.10;99.90;;;;;;6213724;23;20146;-61
2022/01/05 05:17:08;;;;;;;12.53;1.93;;;3.10;99.90;;;;;;6213489;23;20815;-62
2022/01/05 05:19:33;;;;;;;9.03;1.97;;;3.10;99.90;;;;;;6213791;23;20504;-62
2022/01/05 05:21:59;;;;;;;12.50;2.43;;;3.10;99.90;;;;;;6213434;23;20577;-60
2022/01/05 05:24:24;;;;;;;14.10;2.30;;;3.10;99.90;;;;;;6213638;23;20509;-61
2022/01/05 05:26:50;;;;;;;10.57;2.10;;;3.20;99.90;;;;;;6213278;23;20589;-61
2022/01/05 05:29:16;;;;;;;9.87;2.33;;;3.20;1.00;;;;;;6213612;23;20157;-61
2022/01/05 05:31:41;;;;;;;8.00;1.70;;;3.20;1.00;;;;;;6187043;23;20166;-61
2022/01/05 05:34:07;;;;;;;10.03;2.03;;;3.20;1.00;;;;;;6213196;23;20822;-61
2022/01/05 05:36:32;;;;;;;12.63;2.33;;;3.10;1.00;;;;;;6213175;23;20147;-61
2022/01/05 05:38:58;;;;;;;10.73;2.03;;;3.20;1.00;;;;;;6213182;23;20625;-61
2022/01/05 05:41:23;;;;;;;10.93;2.07;;;3.10;1.00;;;;;;6212691;23;20201;-61
2022/01/05 05:43:49;;;;;;;7.23;1.83;;;3.20;1.00;;;;;;6213095;23;20155;-61
2022/01/05 05:46:15;;;;;;;8.43;1.70;;;3.10;1.00;;;;;;6213302;23;20146;-60
2022/01/05 05:48:41;;;;;;;6.90;2.60;;;3.10;1.00;;;;;;6213116;23;20177;-62
2022/01/05 05:51:06;;;;;;;9.60;2.20;;;3.00;1.00;;;;;;6213269;23;20445;-61
2022/01/05 05:53:32;;;;;;;10.20;2.43;;;3.00;1.00;;;;;;6213184;23;20177;-58
2022/01/05 05:55:58;;;;;;;8.87;1.80;;;3.00;1.00;;;;;;6212972;23;20481;-61
2022/01/05 05:58:23;;;;;;;14.00;2.10;;;3.10;1.00;;;;;;6212977;23;20150;-61
2022/01/05 06:00:49;;;;;;;18.23;2.30;;;3.00;93.10;;;;;;6213502;23;20209;-61
2022/01/05 06:03:15;;;;;;;12.47;2.63;;;3.00;46.60;;;;;;6212239;23;20151;-61
2022/01/05 06:05:40;;;;;;;11.10;2.40;;;3.00;99.90;;;;;;6213306;23;20768;-62
2022/01/05 06:08:06;;;;;;;10.70;2.10;;;3.00;99.90;;;;;;6213509;23;20377;-62
2022/01/05 06:10:31;;;;;;;18.20;2.30;;;2.90;1.00;;;;;;6213370;23;20166;-62
2022/01/05 06:12:57;;;;;;;8.73;2.60;;;2.90;1.00;;;;;;6186801;23;20173;-62
2022/01/05 06:15:23;;;;;;;10.20;1.80;;;2.90;1.00;;;;;;6213101;23;20154;-61
2022/01/05 06:17:48;;;;;;;8.90;2.90;;;2.90;1.00;;;;;;6212817;23;20153;-62
2022/01/05 06:20:14;;;;;;;10.27;2.30;;;2.90;1.00;;;;;;6212884;23;20261;-62
2022/01/05 06:22:40;;;;;;;8.77;2.03;;;2.90;1.00;;;;;;6212793;23;20158;-61
2022/01/05 06:25:07;;;;;;;11.33;3.00;;;2.90;1.00;;;;;;6213367;23;20443;-62
2022/01/05 06:27:33;;;;;;;11.90;3.00;;;2.90;1.00;;;;;;6212710;23;20366;-61
2022/01/05 06:30:04;;;;;;;18.70;2.87;;;2.90;1.00;;;;;;6212970;23;20392;-62
2022/01/05 06:32:29;;;;;;;10.10;2.40;;;2.90;1.00;;;;;;6212908;23;20147;-59
2022/01/05 06:34:55;;;;;;;10.83;2.10;;;2.90;1.00;;;;;;6213100;23;20822;-61
2022/01/05 06:37:20;;;;;;;11.17;2.67;;;2.90;1.00;;;;;;6212697;23;20154;-61
2022/01/05 06:39:46;;;;;;;10.17;2.63;;;2.90;1.00;;;;;;6212571;23;20473;-61
2022/01/05 06:42:11;;;;;;;17.00;2.87;;;2.90;1.00;;;;;;6212372;23;20186;-61
2022/01/05 06:44:37;;;;;;;16.37;2.63;;;2.90;1.00;;;;;;6212903;23;20146;-61
2022/01/05 06:47:03;;;;;;;9.50;2.83;;;2.90;1.00;;;;;;6213385;23;20200;-62
2022/01/05 06:49:28;;;;;;;18.90;3.10;;;3.00;99.90;;;;;;6212842;23;20188;-62
2022/01/05 06:51:54;;;;;;;8.87;2.57;;;3.00;99.90;;;;;;6212996;23;20912;-61
2022/01/05 06:54:19;;;;;;;12.70;2.93;;;3.00;99.90;;;;;;6212628;23;20147;-61
2022/01/05 06:56:46;;;;;;;10.33;2.30;;;3.00;99.90;;;;;;6212877;23;20233;-61
2022/01/05 06:59:13;;;;;;;16.10;2.50;;;3.00;99.90;;;;;;6212790;23;20178;-61
2022/01/05 07:01:38;;;;;;;19.57;2.97;;;3.00;99.90;;;;;;6212818;23;20380;-61
2022/01/05 07:04:04;;;;;;;12.63;3.40;;;3.10;99.90;;;;;;6212956;23;20390;-61
2022/01/05 07:06:29;;;;;;;8.73;2.20;;;3.10;66.00;;;;;;6212375;23;20576;-60
2022/01/05 07:08:55;;;;;;;13.27;2.67;;;3.10;25.80;;;;;;6212239;23;20147;-60
2022/01/05 07:11:21;;;;;;;14.57;2.77;;;3.20;1.00;;;;;;6212770;23;20622;-60
2022/01/05 07:13:46;;;;;;;12.73;2.70;;;3.20;1.00;;;;;;6212303;23;20464;-61
2022/01/05 07:16:12;;;;;;;12.20;2.30;;;3.20;1.00;;;;;;6212868;23;20217;-59
2022/01/05 07:18:37;;;;;;;12.10;2.30;;;3.20;1.00;;;;;;6212714;23;20252;-62
2022/01/05 07:21:03;;;;;;;10.97;2.70;;;3.20;1.00;;;;;;6212360;23;20159;-60
2022/01/05 07:23:28;;;;;;;21.47;3.23;;;3.30;1.00;;;;;;6212473;23;20139;-61
2022/01/05 07:25:54;;;;;;;12.30;2.90;;;3.30;1.00;;;;;;6212821;23;20794;-60
2022/01/05 07:28:19;;;;;;;17.93;2.83;;;3.30;1.00;;;;;;6212466;23;20208;-61
2022/01/05 07:30:45;;;;;;;13.83;3.00;;;3.30;1.00;;;;;;6212605;23;20153;-57
2022/01/05 07:33:10;;;;;;;11.70;2.10;;;3.30;1.00;;;;;;6212584;23;20151;-60
2022/01/05 07:35:36;;;;;;;9.30;2.53;;;3.30;1.00;;;;;;6186441;23;20661;-61
2022/01/05 07:38:01;;;;;;;9.80;2.20;;;3.30;1.00;;;;;;6212521;23;20143;-61
2022/01/05 07:40:27;;;;;;;13.53;2.70;;;3.30;1.00;;;;;;6212363;23;20170;-61
2022/01/05 07:42:53;;;;;;;11.10;2.50;;;3.30;12.60;;;;;;6212437;23;20161;-61
2022/01/05 07:45:19;;;;;;;17.30;2.90;;;3.30;27.30;;;;;;6212373;23;20764;-61
2022/01/05 07:47:44;;;;;;;8.23;2.33;;;3.30;27.00;;;;;;6212259;23;20389;-61
2022/01/05 07:50:14;;;;;;;9.30;2.40;;;3.30;30.00;;;;;;6212605;23;20170;-59
2022/01/05 07:52:45;;;;;;;8.80;2.90;;;3.30;1.00;;;;;;6211179;23;20210;-61
2022/01/05 07:55:11;;;;;;;5.67;2.17;;;3.40;1.00;;;;;;6212765;23;20377;-57
2022/01/05 07:57:36;;;;;;;18.00;3.00;;;3.40;1.00;;;;;;6212704;23;20435;-60
2022/01/05 08:00:05;;;;;;;18.60;3.37;;;3.50;1.00;;;;;;6212656;23;20428;-61
2022/01/05 08:02:30;;;;;;;15.13;3.43;;;3.50;1.00;;;;;;6212443;23;20994;-61
2022/01/05 08:04:56;;;;;;;14.90;3.50;;;3.50;1.00;;;;;;6212618;23;20377;-60
2022/01/05 08:07:21;;;;;;;11.90;2.97;;;3.60;1.00;;;;;;6212520;23;20157;-61
2022/01/05 08:09:46;;;;;;;11.90;2.53;;;3.60;1.00;;;;;;6212718;23;20150;-61
2022/01/05 08:12:12;;;;;;;11.20;2.97;;;3.70;1.00;;;;;;6212754;23;20229;-61
2022/01/05 08:14:37;;;;;;;9.77;2.87;;;3.70;1.00;;;;;;6212127;23;20150;-61
2022/01/05 08:17:03;;;;;;;8.80;3.00;;;3.60;1.00;;;;;;6212037;23;20197;-62
2022/01/05 08:19:29;;;;;;;8.13;2.40;;;3.60;1.00;;;;;;6211610;23;20174;-61
2022/01/05 08:21:54;;;;;;;12.03;2.50;;;3.50;1.00;;;;;;6212396;23;20155;-61
2022/01/05 08:24:20;;;;;;;9.50;2.37;;;3.50;55.00;;;;;;6212463;23;20217;-62
2022/01/05 08:26:45;;;;;;;11.90;2.47;;;3.50;99.90;;;;;;6214310;23;20568;-59
2022/01/05 08:29:11;;;;;;;9.23;3.33;;;3.40;99.90;;;;;;6213936;23;20157;-60
2022/01/05 08:31:36;;;;;;;12.80;2.70;;;3.40;99.90;;;;;;6213911;23;20583;-61
2022/01/05 08:34:02;;;;;;;12.73;3.50;;;3.40;99.90;;;;;;6213839;23;20162;-62
2022/01/05 08:36:27;;;;;;;23.60;3.00;;;3.30;1.00;;;;;;6213848;23;20645;-62
2022/01/05 08:38:53;;;;;;;18.17;2.83;;;3.30;1.00;;;;;;6213350;23;20175;-62
2022/01/05 08:41:19;;;;;;;11.07;3.10;;;3.30;1.00;;;;;;6214105;23;20452;-59
2022/01/05 08:43:45;;;;;;;12.20;3.20;;;3.20;99.90;;;;;;6214143;23;20135;-62
2022/01/05 08:46:11;;;;;;;7.90;3.00;;;3.20;99.90;;;;;;6214206;23;20369;-61
2022/01/05 08:48:39;;;;;;;16.37;3.30;;;3.20;91.30;;;;;;6213796;23;20162;-61
2022/01/05 08:51:04;;;;;;;17.77;3.47;;;3.20;99.90;;;;;;6214371;23;20281;-62
2022/01/05 08:53:30;;;;;;;9.57;3.70;;;3.20;1.00;;;;;;6214039;23;20813;-62
2022/01/05 08:55:56;;;;;;;13.10;3.30;;;3.10;1.00;;;;;;6214112;23;20632;-60
2022/01/05 08:58:21;;;;;;;17.73;4.53;;;3.20;99.90;;;;;;6214226;23;20142;-61
2022/01/05 09:00:48;;;;;;;12.97;4.37;;;3.10;1.00;;;;;;6213910;23;20155;-61
2022/01/05 09:03:15;;;;;;;19.53;4.73;;;3.10;99.90;;;;;;6214264;23;20143;-62
2022/01/05 09:05:41;;;;;;;17.77;5.10;;;3.20;1.00;;;;;;6214012;23;20366;-60
2022/01/05 09:08:07;;;;;;;20.37;5.97;;;3.20;1.00;;;;;;6213818;23;20934;-61
2022/01/05 09:10:34;;;;;;;12.67;5.00;;;3.20;1.00;;;;;;6214095;23;20374;-61
2022/01/05 09:13:00;;;;;;;22.33;5.80;;;3.10;1.00;;;;;;6213628;23;20562;-66
2022/01/05 09:15:26;;;;;;;14.80;5.70;;;3.20;1.00;;;;;;6213669;23;20468;-61
2022/01/05 09:17:52;;;;;;;12.60;5.90;;;3.20;99.90;;;;;;6213741;23;20365;-62
2022/01/05 09:20:18;;;;;;;14.47;4.77;;;3.20;1.00;;;;;;6213824;23;20934;-61
2022/01/05 09:22:44;;;;;;;16.70;5.53;;;3.20;99.90;;;;;;6213400;23;20377;-61
2022/01/05 09:25:11;;;;;;;18.43;6.00;;;3.20;1.00;;;;;;6212680;23;20155;-62
2022/01/05 09:27:39;;;;;;;9.13;5.07;;;3.20;1.00;;;;;;6213149;23;20138;-60
2022/01/05 09:30:08;;;;;;;19.07;5.40;;;3.30;1.00;;;;;;6213339;23;20473;-62
2022/01/05 09:32:34;;;;;;;12.07;4.90;;;3.30;1.00;;;;;;6213321;23;20372;-62
2022/01/05 09:35:00;;;;;;;15.60;5.00;;;3.40;99.90;;;;;;6213363;23;20453;-60
2022/01/05 09:37:31;;;;;;;23.03;5.00;;;3.50;1.00;;;;;;6213071;23;20475;-60
2022/01/05 09:42:43;;;;;;;14.00;6.10;;;3.50;4.20;;;;;;6213487;23;20369;-61
2022/01/05 09:45:14;;;;;;;13.37;5.30;;;3.60;1.00;;;;;;6213200;23;20435;-61
2022/01/05 09:48:13;;;;;;;20.77;6.57;;;3.60;1.00;;;;;;6212933;23;20400;-62
2022/01/05 09:50:48;;;;;;;21.73;6.33;;;3.70;99.90;;;;;;6213378;23;20389;-62
2022/01/05 09:53:14;;;;;;;15.93;6.97;;;3.70;99.90;;;;;;6157115;23;20425;-62
2022/01/05 09:55:40;;;;;;;17.93;7.00;;;3.80;50.60;;;;;;6183003;23;20358;-60
2022/01/05 09:58:06;;;;;;;12.30;6.00;;;3.80;1.00;;;;;;6182501;23;20389;-61
2022/01/05 10:00:31;;;;;;;21.67;6.73;;;3.80;1.00;;;;;;6183009;23;20410;-61
2022/01/05 10:02:57;;;;;;;12.30;6.17;;;3.80;1.00;;;;;;6183358;23;20155;-60
2022/01/05 10:05:24;;;;;;;18.33;6.43;;;3.80;1.00;;;;;;6183626;23;20150;-60
2022/01/05 10:07:50;;;;;;;10.10;6.07;;;3.80;1.00;;;;;;6183894;23;20193;-59
2022/01/05 10:10:15;;;;;;;12.30;7.00;;;3.80;1.00;;;;;;6182293;23;20513;-61
2022/01/05 10:12:41;;;;;;;12.33;6.27;;;3.80;1.00;;;;;;6183050;23;20529;-61
2022/01/05 10:15:06;;;;;;;21.00;7.43;;;3.80;34.30;;;;;;6182569;23;20163;-61
2022/01/05 10:17:34;;;;;;;14.20;6.40;;;3.80;1.00;;;;;;6182427;23;20218;-61
2022/01/05 10:20:06;;;;;;;12.43;6.27;;;3.80;50.40;;;;;;6182770;23;20237;-61
2022/01/05 10:22:41;;;;;;;14.90;6.53;;;3.90;41.30;;;;;;6182367;23;20393;-61
2022/01/05 10:25:13;;;;;;;14.87;6.90;;;3.90;1.00;;;;;;6182766;23;20378;-60
2022/01/05 10:27:39;;;;;;;12.20;6.90;;;4.00;1.00;;;;;;6182706;23;21184;-61
2022/01/05 10:30:07;;;;;;;19.10;7.97;;;4.00;9.60;;;;;;6182522;23;20406;-61
2022/01/05 10:32:34;;;;;;;21.23;7.57;;;4.00;1.00;;;;;;6183008;23;20158;-62
2022/01/05 10:35:06;;;;;;;17.17;8.17;;;4.00;1.00;;;;;;6183423;23;20410;-62
2022/01/05 10:37:32;;;;;;;19.33;8.23;;;4.10;1.00;;;;;;6182259;23;20370;-61
2022/01/05 10:40:13;;;;;;;16.50;7.70;;;4.10;1.00;;;;;;6183010;23;20434;-61
2022/01/05 10:42:42;;;;;;;16.20;7.80;;;4.10;1.00;;;;;;6183104;23;20446;-62
2022/01/05 10:45:11;;;;;;;17.60;7.97;;;4.10;1.00;;;;;;6182796;23;20445;-62
2022/01/05 10:47:38;;;;;;;13.57;7.63;;;4.20;99.90;;;;;;6180407;23;20382;-66
2022/01/05 10:50:06;;;;;;;14.17;7.50;;;4.20;99.90;;;;;;6155584;23;20398;-62
2022/01/05 10:52:35;;;;;;;18.70;7.40;;;4.20;99.90;;;;;;6203812;23;20437;-61
2022/01/05 10:55:17;;;;;;;13.43;8.13;;;4.30;99.90;;;;;;6184184;23;20397;-62
2022/01/05 10:58:02;;;;;;;13.47;7.67;;;4.30;99.90;;;;;;6210498;23;20823;-61
2022/01/05 11:00:41;;;;;;;14.37;7.43;;;4.30;99.90;;;;;;6184075;23;21121;-61
2022/01/05 11:03:40;;;;;;;11.97;6.73;;;4.30;99.90;;;;;;6211829;23;20390;-64
2022/01/05 11:06:16;;;;;;;9.27;5.40;;;4.30;99.90;;;;;;6177741;23;20750;-58
2022/01/05 11:09:04;;;;;;;9.97;5.50;;;4.30;99.90;;;;;;6210712;23;20789;-62
2022/01/05 11:11:43;;;;;;;11.10;5.60;;;4.20;1.00;;;;;;6212307;23;20366;-63
2022/01/05 11:14:14;;;;;;;8.53;4.90;;;4.20;99.90;;;;;;6213056;23;20385;-63
2022/01/05 11:16:42;;;;;;;9.20;4.90;;;4.10;1.00;;;;;;6212935;23;20448;-63
2022/01/05 11:19:29;;;;;;;11.77;4.70;;;4.10;1.00;;;;;;6212823;23;20417;-61
2022/01/05 11:22:00;;;;;;;8.63;5.23;;;4.00;1.00;;;;;;6212914;23;20670;-63
2022/01/05 11:24:27;;;;;;;9.70;5.00;;;4.00;1.00;;;;;;6213056;23;20828;-62
2022/01/05 11:26:53;;;;;;;10.80;5.47;;;4.00;1.00;;;;;;6213010;23;20886;-63
2022/01/05 11:29:21;;;;;;;9.33;5.17;;;4.00;99.90;;;;;;6210853;23;20412;-67
2022/01/05 11:31:46;;;;;;;12.30;4.57;;;4.00;1.00;;;;;;6185256;23;20397;-63
2022/01/05 11:34:13;;;;;;;8.37;4.87;;;3.90;99.90;;;;;;6213095;23;20812;-63
2022/01/05 11:36:40;;;;;;;11.10;6.17;;;3.90;99.90;;;;;;6208534;23;20492;-62
2022/01/05 11:39:05;;;;;;;8.90;4.40;;;3.90;1.00;;;;;;6212212;23;20427;-62
2022/01/05 11:41:35;;;;;;;8.53;4.50;;;3.90;1.00;;;;;;6211748;23;20378;-62
2022/01/05 11:44:04;;;;;;;7.87;4.37;;;3.90;1.00;;;;;;6212420;23;20237;-62
2022/01/05 11:46:30;;;;;;;6.70;4.30;;;3.90;99.90;;;;;;6212783;23;20372;-62
2022/01/05 11:48:59;;;;;;;7.80;3.70;;;3.90;99.90;;;;;;6212826;23;20785;-63
2022/01/05 11:51:43;;;;;;;5.53;3.77;;;3.90;1.00;;;;;;6212506;23;20201;-62
2022/01/05 11:54:26;;;;;;;6.43;3.97;;;4.00;99.90;;;;;;6186379;23;20399;-62
2022/01/05 11:57:10;;;;;;;5.70;4.00;;;4.00;99.90;;;;;;6212602;23;20708;-62
2022/01/05 11:59:39;;;;;;;3.67;3.37;;;4.10;56.80;;;;;;6213374;23;20432;-61
2022/01/05 12:02:17;;;;;;;5.73;2.93;;;4.10;99.90;;;;;;6187917;23;20512;-62
2022/01/05 12:04:52;;;;;;;4.93;2.43;;;4.10;1.00;;;;;;6214266;23;20362;-63
2022/01/05 12:07:45;;;;;;;2.50;2.30;;;4.00;99.90;;;;;;6214607;23;20373;-63
2022/01/05 12:10:24;;;;;;;2.27;2.07;;;3.90;1.00;;;;;;6187796;23;20741;-59
2022/01/05 12:13:06;;;;;;;5.77;2.30;;;3.90;1.00;;;;;;6210630;23;20411;-62
2022/01/05 12:15:45;;;;;;;3.87;1.87;;;3.90;1.00;;;;;;6214170;23;20431;-62
2022/01/05 12:18:19;;;;;;;4.10;1.90;;;4.00;1.00;;;;;;6212132;23;20472;-62
2022/01/05 12:20:45;;;;;;;2.00;1.13;;;4.00;1.00;;;;;;6185510;23;20471;-55
2022/01/05 12:23:16;;;;;;;2.40;1.20;;;3.90;1.00;;;;;;6211829;23;20381;-55
2022/01/05 12:26:02;;;;;;;7.33;1.40;;;3.90;1.00;;;;;;6214447;23;20154;-56
2022/01/05 12:28:37;;;;;;;1.47;1.27;;;3.80;92.80;;;;;;6214584;23;20417;-55
2022/01/05 12:31:03;;;;;;;2.07;1.43;;;3.80;1.00;;;;;;6214862;23;20682;-55
2022/01/05 12:33:41;;;;;;;2.93;0.90;;;3.90;99.90;;;;;;6214222;23;20412;-55
2022/01/05 12:36:08;;;;;;;2.90;1.20;;;3.70;99.90;;;;;;6187216;23;20420;-55
2022/01/05 12:38:51;;;;;;;1.07;1.00;;;3.70;99.90;;;;;;6212179;23;20504;-55
2022/01/05 12:41:26;;;;;;;1.53;1.43;;;3.60;1.00;;;;;;6212237;23;20824;-55
2022/01/05 12:43:52;;;;;;;3.67;1.20;;;3.60;1.00;;;;;;6214358;23;20376;-54
2022/01/05 12:46:33;;;;;;;1.33;1.17;;;3.70;7.10;;;;;;6214698;23;20365;-54
2022/01/05 12:49:01;;;;;;;1.67;1.10;;;3.80;99.90;;;;;;6214128;23;20381;-55
2022/01/05 12:51:34;;;;;;;2.47;1.23;;;3.80;99.90;;;;;;6213705;23;20460;-55
2022/01/05 12:54:08;;;;;;;2.63;1.30;;;3.80;45.00;;;;;;6213214;23;20381;-55
2022/01/05 12:56:45;;;;;;;2.70;1.50;;;3.90;1.00;;;;;;6213965;23;20381;-55
2022/01/05 12:59:15;;;;;;;3.23;1.40;;;3.90;99.90;;;;;;6213902;23;20418;-55
2022/01/05 13:01:43;;;;;;;4.10;1.10;;;3.90;1.00;;;;;;6213694;23;20370;-55